Time;durP1;ratioP1;P1;durP2;ratioP2;P2;SDS_P1;SDS_P2;PMS_P1;PMS_P2;Temp;Humidity;BMP_temperature;BMP_pressure;BME280_temperature;BME280_humidity;BME280_pressure;Samples;Min_cycle;Max_cycle;Signal;HPM_P1;HPM_P2
2021/10/16 00:01:59;;;;;;;2.30;2.00;;;;;;;28.18;21.37;93958.03;5073047;28;20487;-44
2021/10/16 00:04:26;;;;;;;2.53;1.73;;;;;;;28.13;21.59;93960.44;5062096;28;20056;-44
2021/10/16 00:06:53;;;;;;;2.15;1.73;;;;;;;28.15;21.50;93945.44;5052923;28;20051;-61
2021/10/16 00:09:20;;;;;;;2.10;1.60;;;;;;;28.22;21.27;93944.56;5052968;28;20059;-52
2021/10/16 00:11:47;;;;;;;2.70;1.60;;;;;;;28.04;21.26;93950.19;5042929;28;20467;-44
2021/10/16 00:14:14;;;;;;;2.78;1.65;;;;;;;28.23;21.27;93943.38;5041635;28;20053;-44
2021/10/16 00:16:41;;;;;;;2.00;1.67;;;;;;;28.04;21.45;93942.13;5052450;28;20048;-44
2021/10/16 00:19:08;;;;;;;1.92;1.55;;;;;;;27.86;21.91;93947.03;5052675;28;20436;-44
2021/10/16 00:21:37;;;;;;;2.47;1.70;;;;;;;27.85;21.74;93948.19;5052242;28;20049;-43
2021/10/16 00:24:04;;;;;;;2.10;1.42;;;;;;;28.00;21.92;93946.81;5052614;28;20388;-44
2021/10/16 00:26:32;;;;;;;1.98;1.77;;;;;;;28.05;21.69;93943.66;5052254;28;20116;-44
2021/10/16 00:28:59;;;;;;;2.10;1.83;;;;;;;28.20;21.46;93936.16;5052066;28;20062;-44
2021/10/16 00:31:27;;;;;;;2.55;2.10;;;;;;;28.04;21.43;93936.75;5052675;28;20049;-43
2021/10/16 00:33:54;;;;;;;1.80;1.65;;;;;;;28.02;21.66;93933.72;5057900;28;20348;-44
2021/10/16 00:36:22;;;;;;;3.15;2.00;;;;;;;28.09;21.31;93930.91;5072351;28;20087;-44
2021/10/16 00:38:49;;;;;;;2.83;1.70;;;;;;;27.92;21.72;93926.59;5072232;28;20044;-44
2021/10/16 00:41:16;;;;;;;2.20;1.80;;;;;;;27.98;21.59;93927.66;5059641;28;20053;-44
2021/10/16 00:43:44;;;;;;;2.35;1.85;;;;;;;28.07;21.69;93925.19;5035851;28;20053;-44
2021/10/16 00:46:11;;;;;;;2.35;1.60;;;;;;;27.88;21.94;93920.53;5052509;28;20048;-44
2021/10/16 00:48:38;;;;;;;2.78;2.08;;;;;;;28.14;21.73;93927.03;5052262;28;20045;-45
2021/10/16 00:51:05;;;;;;;2.22;1.70;;;;;;;27.86;21.62;93931.69;5033483;28;20048;-57
2021/10/16 00:53:33;;;;;;;2.25;1.73;;;;;;;27.98;21.79;93916.91;5017822;28;20064;-45
2021/10/16 00:56:00;;;;;;;3.53;2.45;;;;;;;27.90;22.08;93920.88;5034580;28;20080;-44
2021/10/16 00:58:27;;;;;;;4.93;4.13;;;;;;;27.81;22.06;93923.31;5050628;28;20056;-44
2021/10/16 01:00:54;;;;;;;4.57;3.88;;;;;;;28.06;21.89;93929.06;5051338;28;20095;-44
2021/10/16 01:03:22;;;;;;;3.42;2.40;;;;;;;27.81;22.33;93917.94;5035163;28;20045;-47
2021/10/16 01:05:50;;;;;;;2.72;1.92;;;;;;;27.70;22.35;93922.72;5018606;28;20053;-49
2021/10/16 01:08:17;;;;;;;2.25;1.90;;;;;;;27.74;22.26;93936.84;5068528;28;20045;-43
2021/10/16 01:10:44;;;;;;;2.00;1.80;;;;;;;27.71;22.09;93924.22;5071900;28;20048;-45
2021/10/16 01:13:11;;;;;;;2.25;1.95;;;;;;;27.71;22.55;93918.84;5063503;28;20080;-43
2021/10/16 01:15:39;;;;;;;3.15;2.45;;;;;;;27.88;22.04;93925.91;5015756;28;20049;-44
2021/10/16 01:18:06;;;;;;;3.20;2.90;;;;;;;27.80;22.19;93916.41;5034328;28;20064;-44
2021/10/16 01:20:34;;;;;;;3.05;2.20;;;;;;;27.85;22.25;93929.41;5034548;28;20041;-44
2021/10/16 01:23:02;;;;;;;2.08;1.60;;;;;;;27.79;22.56;93922.94;5034712;28;20056;-44
2021/10/16 01:25:29;;;;;;;2.60;1.75;;;;;;;27.87;22.56;93927.06;5052613;28;20449;-44
2021/10/16 01:27:56;;;;;;;10.20;9.25;;;;;;;27.69;22.75;93926.56;5047354;28;20049;-44
2021/10/16 01:30:25;;;;;;;10.15;8.63;;;;;;;28.00;22.65;93929.94;5015692;28;20057;-44
2021/10/16 01:32:53;;;;;;;6.93;5.70;;;;;;;27.66;22.98;93932.75;5032304;28;20447;-44
2021/10/16 01:35:20;;;;;;;4.97;3.22;;;;;;;27.81;22.54;93934.81;5032521;28;20053;-44
2021/10/16 01:37:49;;;;;;;3.05;2.40;;;;;;;27.52;22.68;93929.03;5048056;28;20052;-43
2021/10/16 01:40:20;;;;;;;2.03;1.80;;;;;;;27.79;22.81;93922.94;5052156;28;20048;-44
2021/10/16 01:42:49;;;;;;;2.65;1.50;;;;;;;27.54;23.02;93931.31;5049184;28;20481;-43
2021/10/16 01:45:19;;;;;;;2.00;1.70;;;;;;;27.50;23.00;93931.38;5034942;28;20044;-44
2021/10/16 01:47:53;;;;;;;1.80;1.50;;;;;;;27.61;22.76;93926.63;5033619;28;20051;-44
2021/10/16 01:50:38;;;;;;;1.77;1.50;;;;;;;27.67;22.78;93934.25;5050510;28;20068;-47
2021/10/16 01:53:09;;;;;;;1.70;1.48;;;;;;;27.45;23.01;93929.16;5034441;28;20049;-44
2021/10/16 01:55:37;;;;;;;1.95;1.30;;;;;;;27.52;23.07;93937.09;5059567;28;20052;-44
2021/10/16 01:58:09;;;;;;;2.63;1.77;;;;;;;27.74;22.58;93929.53;5054150;28;20040;-46
2021/10/16 02:00:46;;;;;;;2.92;1.95;;;;;;;27.70;23.01;93922.72;5041714;28;20044;-44
2021/10/16 02:03:14;;;;;;;3.17;2.17;;;;;;;27.82;22.74;93924.81;5056292;28;20048;-44
2021/10/16 02:05:55;;;;;;;4.30;2.47;;;;;;;27.49;23.23;93929.84;5058198;28;20447;-44
2021/10/16 02:08:33;;;;;;;4.32;2.65;;;;;;;27.42;22.89;93935.31;5058237;28;20052;-45
2021/10/16 02:11:00;;;;;;;4.32;2.90;;;;;;;27.20;23.35;93934.81;5068473;28;20462;-47
2021/10/16 02:13:36;;;;;;;5.07;2.70;;;;;;;27.43;23.06;93936.09;5037865;28;20265;-44
2021/10/16 02:16:06;;;;;;;3.78;2.67;;;;;;;27.41;23.03;93933.03;5054389;28;20052;-44
2021/10/16 02:18:47;;;;;;;3.05;2.05;;;;;;;27.48;22.96;93931.03;5054253;28;20045;-44
2021/10/16 02:21:18;;;;;;;2.97;1.95;;;;;;;27.42;23.17;93924.59;5037739;28;20391;-44
2021/10/16 02:23:45;;;;;;;1.98;1.38;;;;;;;27.57;23.07;93933.94;5054284;28;20436;-44
2021/10/16 02:26:15;;;;;;;1.98;1.40;;;;;;;27.45;23.15;93934.50;5054229;28;20045;-45
2021/10/16 02:28:46;;;;;;;1.58;1.20;;;;;;;27.40;22.89;93940.34;5037537;28;20375;-44
2021/10/16 02:31:36;;;;;;;1.92;1.00;;;;;;;27.55;22.92;93949.72;5063403;28;20045;-53
2021/10/16 02:34:06;;;;;;;1.77;0.98;;;;;;;27.49;23.13;93937.91;5037950;28;20045;-46
2021/10/16 02:36:40;;;;;;;1.45;0.90;;;;;;;27.48;22.92;93932.94;5036784;28;20045;-48
2021/10/16 02:39:07;;;;;;;1.40;0.80;;;;;;;27.50;22.90;93928.69;5037184;28;20056;-45
2021/10/16 02:41:38;;;;;;;0.70;0.57;;;;;;;27.53;23.18;93935.16;5053913;28;20049;-46
2021/10/16 02:44:05;;;;;;;1.33;0.90;;;;;;;27.28;23.49;93932.81;5042735;28;20049;-62
2021/10/16 02:46:53;;;;;;;1.10;0.70;;;;;;;27.55;22.92;93935.53;5042816;28;20056;-44
2021/10/16 02:49:20;;;;;;;1.73;1.02;;;;;;;27.47;23.01;93942.16;5037248;28;20049;-44
2021/10/16 02:51:47;;;;;;;1.20;0.80;;;;;;;27.32;23.38;93937.00;5065229;28;20048;-44
2021/10/16 02:54:14;;;;;;;1.50;0.82;;;;;;;27.27;23.14;93939.34;5075230;28;20045;-44
2021/10/16 02:56:43;;;;;;;1.15;0.55;;;;;;;27.68;22.98;93943.84;5056760;28;20051;-44
2021/10/16 02:59:12;;;;;;;1.25;0.77;;;;;;;27.47;23.32;93942.16;5073547;28;20134;-44
2021/10/16 03:01:46;;;;;;;0.98;0.70;;;;;;;27.46;22.94;93944.09;5046310;28;20060;-45
2021/10/16 03:04:14;;;;;;;1.20;0.80;;;;;;;27.55;23.16;93938.97;5037167;28;20423;-45
2021/10/16 03:06:43;;;;;;;0.98;0.70;;;;;;;27.25;23.25;93947.03;5036829;28;20068;-43
2021/10/16 03:09:16;;;;;;;1.00;0.70;;;;;;;27.48;22.84;93944.44;5036784;28;20060;-44
2021/10/16 03:11:44;;;;;;;1.10;0.70;;;;;;;27.29;23.56;93934.31;5052696;28;20061;-44
2021/10/16 03:14:12;;;;;;;1.02;0.60;;;;;;;27.31;23.20;93940.06;5035779;28;20506;-44
2021/10/16 03:16:43;;;;;;;;;;;;;;;27.51;23.13;93949.00;5036904;28;20052;-44
2021/10/16 03:19:11;;;;;;;1.00;0.60;;;;;;;27.39;23.34;93936.13;5036874;28;19912;-44
2021/10/16 03:21:41;;;;;;;1.10;0.70;;;;;;;27.46;23.07;93940.63;5036449;28;20045;-44
2021/10/16 03:24:19;;;;;;;3.53;0.70;;;;;;;27.37;23.08;93941.16;5036255;28;20049;-44
2021/10/16 03:26:46;;;;;;;1.90;0.70;;;;;;;27.38;23.03;93941.91;5036500;28;20053;-45
2021/10/16 03:29:13;;;;;;;1.63;0.90;;;;;;;27.37;23.04;93935.03;5054147;28;20053;-53
2021/10/16 03:31:40;;;;;;;1.20;0.80;;;;;;;27.51;22.86;93940.94;5056048;28;20052;-44
2021/10/16 03:34:07;;;;;;;1.08;0.77;;;;;;;27.30;23.40;93925.13;5072615;28;20382;-47
2021/10/16 03:36:35;;;;;;;1.00;0.70;;;;;;;27.27;23.28;93939.34;5056304;28;20048;-44
2021/10/16 03:39:03;;;;;;;1.17;0.65;;;;;;;27.49;23.22;93940.59;5074393;28;20367;-44
2021/10/16 03:41:30;;;;;;;0.90;0.57;;;;;;;27.42;23.01;93940.69;5074162;28;20051;-44
2021/10/16 03:43:57;;;;;;;1.00;0.77;;;;;;;27.61;23.04;93944.66;5034632;28;20053;-44
2021/10/16 03:46:24;;;;;;;0.75;0.50;;;;;;;27.23;23.29;93941.31;5027823;28;20056;-45
2021/10/16 03:48:52;;;;;;;1.00;0.60;;;;;;;27.16;23.53;93944.09;5036419;28;20057;-43
2021/10/16 03:51:19;;;;;;;0.98;0.60;;;;;;;27.26;23.37;93935.13;5035647;28;20049;-44
2021/10/16 03:53:46;;;;;;;1.70;0.70;;;;;;;27.57;23.00;93946.63;5052503;28;20665;-44
2021/10/16 03:56:13;;;;;;;1.00;0.52;;;;;;;27.30;23.35;93933.16;5053234;28;20056;-57
2021/10/16 03:58:41;;;;;;;0.70;0.50;;;;;;;27.25;23.11;93928.25;5054113;28;20447;-44
2021/10/16 04:01:08;;;;;;;0.60;0.50;;;;;;;27.42;22.79;93940.69;5053535;28;20049;-43
2021/10/16 04:03:37;;;;;;;1.00;0.60;;;;;;;27.21;23.11;93935.59;5036059;28;20060;-44
2021/10/16 04:06:04;;;;;;;0.77;0.50;;;;;;;27.43;23.05;93931.47;5052940;28;20045;-44
2021/10/16 04:08:31;;;;;;;0.73;0.47;;;;;;;27.59;22.86;93934.34;5052438;28;20052;-44
2021/10/16 04:10:59;;;;;;;1.00;0.57;;;;;;;27.28;23.23;93938.94;5053262;28;20480;-44
2021/10/16 04:13:29;;;;;;;1.20;0.50;;;;;;;27.48;23.14;93938.31;5034635;28;20049;-44
2021/10/16 04:15:56;;;;;;;0.70;0.40;;;;;;;27.25;23.02;93934.38;5035452;28;20041;-44
2021/10/16 04:18:23;;;;;;;0.70;0.50;;;;;;;27.29;23.32;93937.00;5036761;28;20057;-46
2021/10/16 04:20:51;;;;;;;0.55;0.38;;;;;;;27.33;23.24;93933.16;5052098;28;20041;-45
2021/10/16 04:23:18;;;;;;;0.98;0.50;;;;;;;27.17;23.54;93924.91;5053458;28;20053;-44
2021/10/16 04:25:45;;;;;;;1.10;0.60;;;;;;;27.22;23.31;93931.75;5035692;28;20336;-43
2021/10/16 04:28:13;;;;;;;0.95;0.60;;;;;;;27.49;23.14;93927.16;5034969;28;20057;-43
2021/10/16 04:30:52;;;;;;;0.80;0.55;;;;;;;27.64;22.67;93925.84;5035274;28;20246;-44
2021/10/16 04:33:20;;;;;;;1.38;0.80;;;;;;;27.50;23.33;93933.28;5055524;28;20059;-44
2021/10/16 04:35:47;;;;;;;2.22;0.77;;;;;;;27.53;22.96;93938.63;5072852;28;20069;-44
2021/10/16 04:38:15;;;;;;;1.25;1.00;;;;;;;27.54;22.89;93940.13;5073375;28;20053;-45
2021/10/16 04:40:42;;;;;;;1.88;1.27;;;;;;;27.51;23.07;93938.25;5073129;28;20055;-44
2021/10/16 04:43:10;;;;;;;1.35;1.25;;;;;;;27.37;23.12;93932.34;5046481;28;20060;-43
2021/10/16 04:45:40;;;;;;;1.70;1.20;;;;;;;27.36;23.01;93928.88;5015354;28;20043;-44
2021/10/16 04:48:08;;;;;;;2.40;0.90;;;;;;;27.38;23.32;93929.25;5029968;28;20053;-44
2021/10/16 04:50:35;;;;;;;1.15;1.02;;;;;;;27.48;22.77;93933.69;5052794;28;20045;-44
2021/10/16 04:53:02;;;;;;;1.20;0.90;;;;;;;27.39;23.07;93941.50;5035096;28;20057;-45
2021/10/16 04:55:33;;;;;;;1.00;0.70;;;;;;;27.55;23.21;93955.06;5035335;28;20060;-45
2021/10/16 04:58:00;;;;;;;0.95;0.70;;;;;;;27.59;22.76;93950.44;5051818;28;20065;-44
2021/10/16 05:00:37;;;;;;;1.50;0.80;;;;;;;27.26;23.43;93954.69;5035431;28;20045;-44
2021/10/16 05:03:07;;;;;;;1.52;0.80;;;;;;;27.54;23.09;93958.91;5052681;28;20052;-43
2021/10/16 05:05:36;;;;;;;2.25;0.80;;;;;;;27.24;23.32;93964.28;5053772;28;20055;-44
2021/10/16 05:08:06;;;;;;;0.95;0.65;;;;;;;27.39;23.48;93973.69;5071402;28;20139;-44
2021/10/16 05:10:35;;;;;;;1.77;1.05;;;;;;;27.54;23.35;93980.41;5054747;28;20049;-43
2021/10/16 05:13:02;;;;;;;3.08;1.20;;;;;;;27.72;22.74;93980.19;5048007;28;20057;-44
2021/10/16 05:15:29;;;;;;;3.38;1.55;;;;;;;27.59;22.80;93977.28;5015324;28;20052;-44
2021/10/16 05:17:57;;;;;;;1.55;1.00;;;;;;;27.80;22.50;93981.63;5027362;28;20054;-43
2021/10/16 05:20:32;;;;;;;1.35;1.20;;;;;;;27.61;23.06;93983.00;5051438;28;20333;-44
2021/10/16 05:23:00;;;;;;;1.65;1.20;;;;;;;27.53;23.25;93981.56;5031269;28;20052;-44
2021/10/16 05:25:27;;;;;;;1.52;1.23;;;;;;;27.63;22.74;93991.44;5014673;28;20072;-44
2021/10/16 05:27:55;;;;;;;2.85;1.40;;;;;;;27.61;23.04;93990.31;5026723;28;20048;-63
2021/10/16 05:30:23;;;;;;;1.70;1.23;;;;;;;27.51;23.28;93991.94;5052391;28;20490;-44
2021/10/16 05:32:50;;;;;;;2.08;1.30;;;;;;;27.61;23.29;93985.69;5033879;28;20045;-45
2021/10/16 05:35:19;;;;;;;2.10;1.40;;;;;;;27.29;23.60;93996.03;5035012;28;20053;-45
2021/10/16 05:37:46;;;;;;;1.80;1.50;;;;;;;27.68;23.02;93994.84;5052363;28;20044;-45
2021/10/16 05:40:14;;;;;;;1.80;1.50;;;;;;;27.39;23.26;93995.19;5055616;28;20447;-62
2021/10/16 05:42:43;;;;;;;3.00;1.80;;;;;;;27.64;23.00;93997.56;5056213;28;20060;-44
2021/10/16 05:45:10;;;;;;;3.13;1.80;;;;;;;27.38;23.75;94001.72;5054795;28;20045;-44
2021/10/16 05:47:41;;;;;;;1.48;1.05;;;;;;;27.58;23.54;94007.94;5039208;28;20067;-43
2021/10/16 05:50:10;;;;;;;1.63;1.30;;;;;;;27.59;23.25;94009.50;5038265;28;20052;-44
2021/10/16 05:52:38;;;;;;;2.05;1.48;;;;;;;27.69;23.14;94018.59;5018914;28;20045;-43
2021/10/16 05:55:05;;;;;;;3.03;1.75;;;;;;;27.63;23.29;94026.34;5038433;28;20055;-44
2021/10/16 05:57:33;;;;;;;3.53;1.35;;;;;;;27.85;23.10;94023.41;5038524;28;20049;-44
2021/10/16 06:00:00;;;;;;;2.08;1.50;;;;;;;29.20;21.92;94021.28;5037811;28;20075;-52
2021/10/16 06:02:33;;;;;;;1.85;1.42;;;;;;;30.46;20.68;94029.09;5058409;28;20064;-44
2021/10/16 06:05:00;;;;;;;1.75;1.10;;;;;;;31.18;20.19;94036.97;5048064;28;20064;-42
2021/10/16 06:07:28;;;;;;;1.55;1.30;;;;;;;31.58;19.67;94031.28;5037963;28;20175;-60
2021/10/16 06:09:55;;;;;;;2.22;1.42;;;;;;;32.22;19.07;94032.91;5037704;28;20048;-43
2021/10/16 06:12:22;;;;;;;2.08;1.30;;;;;;;32.43;18.35;94031.53;5036823;28;20069;-46
2021/10/16 06:14:49;;;;;;;1.70;1.10;;;;;;;32.82;18.44;94034.97;5035974;28;20060;-49
2021/10/16 06:17:25;;;;;;;2.20;1.20;;;;;;;33.16;17.82;94041.56;5037624;28;20048;-47
2021/10/16 06:19:52;;;;;;;1.90;0.90;;;;;;;32.19;18.85;94044.59;5018241;28;20045;-52
2021/10/16 06:22:19;;;;;;;2.38;1.02;;;;;;;31.52;19.24;94047.28;5044216;28;20045;-52
2021/10/16 06:24:47;;;;;;;1.48;1.05;;;;;;;31.12;19.93;94056.78;5054720;28;20041;-54
2021/10/16 06:27:14;;;;;;;1.73;1.48;;;;;;;30.86;20.08;94055.91;5053966;28;20045;-53
2021/10/16 06:29:41;;;;;;;3.05;1.40;;;;;;;21.57;32.19;94058.72;5054697;28;20049;-41
2021/10/16 06:32:09;;;;;;;30.73;2.53;;;;;;;18.69;40.33;94061.69;5022867;28;20052;-47
2021/10/16 06:34:38;;;;;;;20.40;3.03;;;;;;;19.33;39.27;94065.72;5036603;28;20086;-46
2021/10/16 06:37:05;;;;;;;19.77;2.63;;;;;;;21.24;35.85;94062.13;5037258;28;20459;-59
2021/10/16 06:39:33;;;;;;;72.05;5.68;;;;;;;25.65;26.42;94056.22;5035986;28;20129;-50
2021/10/16 06:42:03;;;;;;;20.45;2.85;;;;;;;23.87;28.60;94072.31;5031553;28;20053;-45
2021/10/16 06:44:30;;;;;;;8.18;2.00;;;;;;;22.51;31.30;94079.84;5051457;28;20061;-58
2021/10/16 06:47:01;;;;;;;7.75;1.33;;;;;;;21.66;32.65;94074.44;5035330;28;20048;-52
2021/10/16 06:49:32;;;;;;;3.45;1.40;;;;;;;21.32;33.46;94076.28;5035028;28;20052;-51
2021/10/16 06:51:59;;;;;;;10.65;1.88;;;;;;;21.03;34.46;94080.41;5039061;28;20045;-53
2021/10/16 06:54:27;;;;;;;10.10;2.97;;;;;;;20.94;34.63;94070.81;5054493;28;20059;-54
2021/10/16 06:56:54;;;;;;;2.03;1.50;;;;;;;22.34;32.34;94083.88;5040499;28;20044;-55
2021/10/16 06:59:22;;;;;;;2.95;1.77;;;;;;;22.21;32.42;94083.41;5053539;28;20044;-52
2021/10/16 07:01:50;;;;;;;1.92;1.33;;;;;;;20.22;36.16;94086.72;5037243;28;20059;-50
2021/10/16 07:04:22;;;;;;;3.75;1.40;;;;;;;19.73;37.54;94096.44;5037797;28;20052;-46
2021/10/16 07:06:55;;;;;;;2.15;1.15;;;;;;;19.84;37.57;94092.13;5030082;28;20053;-51
2021/10/16 07:09:28;;;;;;;1.77;1.30;;;;;;;19.57;37.94;94099.16;5022204;28;20048;-49
2021/10/16 07:11:56;;;;;;;2.33;1.42;;;;;;;19.58;37.77;94106.00;5038462;28;20057;-58
2021/10/16 07:14:23;;;;;;;2.42;1.10;;;;;;;19.13;38.99;94106.53;5054266;28;20455;-52
2021/10/16 07:16:51;;;;;;;3.08;1.30;;;;;;;19.03;39.19;94107.84;5021394;28;20474;-48
2021/10/16 07:19:18;;;;;;;2.08;1.50;;;;;;;19.33;38.90;94116.06;5034868;28;20066;-53
2021/10/16 07:21:46;;;;;;;1.70;1.02;;;;;;;19.44;38.32;94118.94;5036434;28;20061;-47
2021/10/16 07:24:13;;;;;;;1.40;1.10;;;;;;;18.96;39.49;94118.28;5054862;28;20474;-45
2021/10/16 07:26:40;;;;;;;2.30;1.38;;;;;;;19.14;38.87;94118.69;5054419;28;20048;-55
2021/10/16 07:29:07;;;;;;;1.80;1.45;;;;;;;18.88;39.68;94122.66;5054521;28;20059;-49
2021/10/16 07:31:35;;;;;;;2.00;1.80;;;;;;;18.69;39.96;94135.81;5054011;28;20060;-55
2021/10/16 07:34:02;;;;;;;2.83;1.83;;;;;;;18.76;39.96;94126.19;5054116;28;20059;-44
2021/10/16 07:36:37;;;;;;;2.30;1.85;;;;;;;18.46;40.78;94127.66;5054181;28;20486;-49
2021/10/16 07:39:06;;;;;;;3.75;1.55;;;;;;;18.78;40.20;94133.78;5033265;28;20103;-49
2021/10/16 07:41:34;;;;;;;1.88;1.25;;;;;;;18.77;40.05;94137.53;5034549;28;20042;-46
2021/10/16 07:44:03;;;;;;;1.80;1.30;;;;;;;18.79;40.35;94136.06;5045447;28;20053;-47
2021/10/16 07:46:30;;;;;;;2.00;1.00;;;;;;;18.77;40.27;94137.53;5036362;28;20048;-51
2021/10/16 07:48:57;;;;;;;2.13;1.40;;;;;;;18.90;40.20;94136.31;5053901;28;20052;-51
2021/10/16 07:51:24;;;;;;;8.90;1.70;;;;;;;19.16;39.60;94142.94;5053835;28;20684;-51
2021/10/16 07:53:51;;;;;;;3.58;2.00;;;;;;;18.85;40.28;94144.53;5072298;28;20056;-48
2021/10/16 07:56:18;;;;;;;2.58;2.08;;;;;;;18.90;40.33;94152.22;5074061;28;20083;-46
2021/10/16 07:58:45;;;;;;;3.05;2.13;;;;;;;18.99;40.40;94138.78;5074206;28;20045;-47
2021/10/16 08:01:12;;;;;;;2.58;1.95;;;;;;;19.08;40.06;94153.38;5073920;28;20052;-45
2021/10/16 08:03:39;;;;;;;3.35;2.10;;;;;;;18.84;40.53;94158.88;5073131;28;20451;-49
2021/10/16 08:06:07;;;;;;;3.00;2.15;;;;;;;19.03;40.64;94163.50;5066375;28;20052;-52
2021/10/16 08:08:34;;;;;;;3.90;2.17;;;;;;;19.10;40.19;94161.75;5036213;28;20056;-50
2021/10/16 08:11:02;;;;;;;3.67;3.08;;;;;;;19.04;40.61;94170.31;5052313;28;20060;-49
2021/10/16 08:13:30;;;;;;;3.13;2.53;;;;;;;19.13;40.64;94165.59;5053792;28;20053;-50
2021/10/16 08:15:57;;;;;;;3.45;2.85;;;;;;;19.16;40.24;94170.22;5038130;28;20056;-48
2021/10/16 08:18:25;;;;;;;3.35;2.72;;;;;;;20.87;36.76;94163.72;5062240;28;20048;-50
2021/10/16 08:20:52;;;;;;;4.78;4.05;;;;;;;21.24;36.18;94171.13;5070490;28;20639;-65
2021/10/16 08:23:19;;;;;;;15.13;12.10;;;;;;;19.86;38.79;94180.06;5053791;28;20074;-57
2021/10/16 08:25:46;;;;;;;5.72;5.22;;;;;;;19.29;40.40;94173.53;5052741;28;20451;-44
2021/10/16 08:28:14;;;;;;;6.18;4.93;;;;;;;19.72;39.33;94175.22;5053701;28;20048;-49
2021/10/16 08:30:50;;;;;;;4.22;2.83;;;;;;;19.86;39.20;94174.75;5053154;28;20056;-47
2021/10/16 08:33:21;;;;;;;3.53;2.70;;;;;;;19.48;40.05;94170.13;5052572;28;20056;-51
2021/10/16 08:35:48;;;;;;;4.43;2.53;;;;;;;19.56;40.03;94170.00;5052830;28;20099;-46
2021/10/16 08:38:16;;;;;;;2.60;2.38;;;;;;;19.51;40.20;94183.47;5053098;28;20049;-47
2021/10/16 08:40:44;;;;;;;2.92;2.35;;;;;;;19.15;41.17;94178.50;5052411;28;20444;-42
2021/10/16 08:43:11;;;;;;;2.95;2.60;;;;;;;19.25;40.80;94177.97;5046767;28;20062;-52
2021/10/16 08:45:38;;;;;;;3.10;2.10;;;;;;;19.38;40.45;94187.34;5055880;28;20052;-53
2021/10/16 08:48:06;;;;;;;2.53;2.10;;;;;;;19.44;40.79;94185.97;5052750;28;20060;-53
2021/10/16 08:50:35;;;;;;;3.50;2.50;;;;;;;19.53;40.79;94183.16;5052302;28;20041;-48
2021/10/16 08:53:02;;;;;;;3.45;2.30;;;;;;;19.71;39.67;94174.44;5051972;28;20059;-49
2021/10/16 08:55:30;;;;;;;3.83;2.30;;;;;;;19.53;40.47;94178.63;5052230;28;20080;-44
2021/10/16 08:57:57;;;;;;;2.85;2.40;;;;;;;19.59;40.69;94179.91;5052437;28;20051;-43
2021/10/16 09:00:52;;;;;;;2.97;2.42;;;;;;;19.49;40.99;94177.75;5052709;28;20059;-43
2021/10/16 09:03:33;;;;;;;4.25;2.63;;;;;;;19.83;39.66;94181.53;5052939;28;20055;-46
2021/10/16 09:06:23;;;;;;;3.17;2.85;;;;;;;19.62;40.41;94184.50;5052253;28;20049;-63
2021/10/16 09:08:53;;;;;;;4.63;2.60;;;;;;;19.63;40.49;94178.09;5063268;22;20499;-49
2021/10/16 09:11:23;;;;;;;2.78;2.22;;;;;;;19.88;39.94;94191.09;5058788;22;20060;-48
2021/10/16 09:14:00;;;;;;;4.18;2.55;;;;;;;19.90;40.34;94178.25;5072028;22;20056;-45
2021/10/16 09:16:32;;;;;;;2.97;2.10;;;;;;;19.81;40.47;94183.75;5052848;28;20079;-60
2021/10/16 09:19:26;;;;;;;3.17;2.40;;;;;;;19.88;40.27;94188.44;5052649;28;20053;-60
2021/10/16 09:21:54;;;;;;;3.13;2.72;;;;;;;19.75;40.54;94181.72;5018587;28;20060;-69
2021/10/16 09:24:41;;;;;;;2.08;1.80;;;;;;;19.90;40.38;94194.94;5018502;28;20040;-64
2021/10/16 09:27:22;;;;;;;3.17;1.98;;;;;;;19.62;40.38;94187.16;5018164;28;20059;-61
2021/10/16 09:30:04;;;;;;;2.67;1.67;;;;;;;19.84;40.61;94198.22;5051436;28;20052;-64
2021/10/16 09:32:31;;;;;;;2.55;1.88;;;;;;;19.97;40.08;94192.41;5048234;28;20053;-71
2021/10/16 09:35:03;;;;;;;2.92;1.92;;;;;;;19.78;39.79;94195.06;5052183;28;20056;-55
2021/10/16 09:37:31;;;;;;;3.85;1.88;;;;;;;19.87;40.30;94194.84;5052508;28;20056;-62
2021/10/16 09:40:03;;;;;;;4.80;1.80;;;;;;;19.96;39.79;94190.09;5050221;28;20051;-48
2021/10/16 09:42:30;;;;;;;3.53;1.73;;;;;;;20.09;39.52;94201.34;5051757;28;20048;-63
2021/10/16 09:45:02;;;;;;;2.30;1.42;;;;;;;20.03;39.77;94193.66;5051929;28;20364;-44
2021/10/16 09:47:29;;;;;;;2.65;1.70;;;;;;;19.84;40.76;94198.22;5052009;28;20052;-52
2021/10/16 09:50:09;;;;;;;2.47;1.80;;;;;;;20.04;40.07;94205.06;5053008;28;20060;-60
2021/10/16 09:52:42;;;;;;;7.63;5.50;;;;;;;20.16;39.99;94201.50;5054447;28;20048;-48
2021/10/16 09:55:12;;;;;;;14.88;12.07;;;;;;;19.99;40.50;94200.00;5054096;28;20060;-46
2021/10/16 09:57:45;;;;;;;8.68;7.78;;;;;;;20.04;39.85;94202.41;5034188;28;20052;-48
2021/10/16 10:00:13;;;;;;;6.68;4.53;;;;;;;20.05;40.21;94201.28;5051825;28;20049;-45
2021/10/16 10:02:41;;;;;;;3.10;2.60;;;;;;;20.28;40.35;94212.72;5037151;28;20041;-45
2021/10/16 10:05:09;;;;;;;3.95;3.50;;;;;;;20.40;40.05;94213.69;5052826;28;20041;-48
2021/10/16 10:07:36;;;;;;;3.42;2.42;;;;;;;20.31;40.29;94212.03;5052256;28;20052;-51
2021/10/16 10:10:05;;;;;;;3.92;2.97;;;;;;;20.56;39.58;94207.22;5051903;28;20075;-47
2021/10/16 10:12:35;;;;;;;2.80;2.30;;;;;;;20.54;39.13;94200.69;5052274;28;20060;-46
2021/10/16 10:15:02;;;;;;;4.50;3.70;;;;;;;21.02;37.97;94209.09;5053043;28;20052;-52
2021/10/16 10:17:31;;;;;;;5.55;3.60;;;;;;;20.41;40.11;94215.25;5052011;28;20049;-43
2021/10/16 10:20:03;;;;;;;42.08;38.00;;;;;;;20.81;38.91;94212.94;5052127;28;20049;-48
2021/10/16 10:22:35;;;;;;;24.77;21.92;;;;;;;20.72;39.61;94215.06;5051029;28;20053;-42
2021/10/16 10:25:04;;;;;;;4.85;4.13;;;;;;;21.18;38.85;94220.38;5054943;28;20052;-42
2021/10/16 10:27:44;;;;;;;11.20;10.02;;;;;;;21.41;37.47;94213.16;5050868;28;20045;-42
2021/10/16 10:30:34;;;;;;;3.90;2.80;;;;;;;20.28;39.51;94222.56;5036181;28;20068;-44
2021/10/16 10:33:16;;;;;;;2.28;1.50;;;;;;;20.97;38.60;94220.03;5035057;28;20075;-46
2021/10/16 10:36:01;;;;;;;2.78;2.10;;;;;;;20.33;39.67;94214.34;5055241;28;20049;-46
2021/10/16 10:38:29;;;;;;;2.95;1.80;;;;;;;20.17;40.50;94217.06;5055495;28;20057;-52
2021/10/16 10:40:57;;;;;;;3.13;2.13;;;;;;;21.08;38.83;94224.41;5055761;28;20052;-46
2021/10/16 10:43:40;;;;;;;3.20;2.00;;;;;;;20.72;39.35;94220.38;5055114;28;20056;-49
2021/10/16 10:46:12;;;;;;;3.80;2.45;;;;;;;20.42;39.57;94211.50;5054164;28;20072;-50
2021/10/16 10:48:47;;;;;;;2.92;2.17;;;;;;;20.39;40.10;94220.13;5055323;28;20462;-47
2021/10/16 10:51:28;;;;;;;3.15;2.70;;;;;;;20.22;40.17;94216.78;5055196;28;20367;-50
2021/10/16 10:54:12;;;;;;;3.42;2.38;;;;;;;20.21;40.46;94215.25;5053986;28;20048;-45
2021/10/16 10:56:41;;;;;;;2.75;2.47;;;;;;;20.40;39.92;94224.31;5055160;28;20060;-51
2021/10/16 10:59:09;;;;;;;2.85;1.85;;;;;;;20.09;40.95;94226.00;5055094;28;20057;-46
2021/10/16 11:01:50;;;;;;;2.83;1.83;;;;;;;20.06;40.72;94216.09;5054868;28;20075;-46
2021/10/16 11:04:39;;;;;;;8.55;2.00;;;;;;;20.61;38.31;94222.09;5053923;28;20060;-52
2021/10/16 11:07:15;;;;;;;2.10;1.60;;;;;;;20.36;39.89;94231.44;5055041;28;20048;-49
2021/10/16 11:09:44;;;;;;;2.25;1.92;;;;;;;20.48;39.37;94220.69;5055769;28;20045;-51
2021/10/16 11:12:12;;;;;;;3.88;1.45;;;;;;;20.18;40.10;94223.91;5055291;28;20057;-45
2021/10/16 11:14:42;;;;;;;3.05;1.73;;;;;;;20.36;39.84;94228.78;5053880;28;20056;-46
2021/10/16 11:17:12;;;;;;;3.00;2.20;;;;;;;20.14;40.77;94217.00;5055175;28;20052;-51
2021/10/16 11:19:50;;;;;;;4.18;2.50;;;;;;;20.25;40.10;94223.28;5054947;28;20052;-47
2021/10/16 11:22:17;;;;;;;4.20;2.30;;;;;;;20.35;39.73;94227.25;5054982;28;20460;-45
2021/10/16 11:24:44;;;;;;;3.22;2.35;;;;;;;20.39;39.89;94239.47;5053675;28;20041;-46
2021/10/16 11:27:11;;;;;;;3.75;2.60;;;;;;;20.41;39.54;94236.50;5053672;28;20053;-45
2021/10/16 11:29:40;;;;;;;3.38;2.40;;;;;;;20.58;39.72;94230.75;5036320;28;20478;-55
2021/10/16 11:32:20;;;;;;;3.15;2.30;;;;;;;20.27;40.62;94232.41;5051711;28;20056;-45
2021/10/16 11:35:02;;;;;;;3.75;2.80;;;;;;;20.32;40.22;94229.50;5052024;28;20772;-46
2021/10/16 11:37:33;;;;;;;3.05;2.22;;;;;;;20.07;39.87;94225.59;5051541;28;20049;-49
2021/10/16 11:40:03;;;;;;;4.05;2.00;;;;;;;20.08;40.14;94224.47;5053914;28;20056;-47
2021/10/16 11:42:30;;;;;;;31.90;26.27;;;;;;;20.48;39.95;94218.81;5053568;28;20048;-53
2021/10/16 11:44:57;;;;;;;9.27;7.93;;;;;;;20.40;39.75;94227.78;5053268;28;20057;-46
2021/10/16 11:47:25;;;;;;;3.60;3.08;;;;;;;20.24;40.02;94235.78;5053772;28;20067;-46